Terminal Aerodrome Forecast
Issued by NWS

Home | Current Version | Previous Version | Text Only | Print | Product List | Glossary On
Versions: 1 2 3 4 5 6 7 8 9 10 11 12 13 14 15
286
FTUS45 KTFX 221150
TAFHVR
TAF
KHVR 221150Z 2212/2312 22014G20KT P6SM VCSH OVC070
      TEMPO 2212/2215 -SHRA BKN050
     FM221600 24023G35KT P6SM SCT070 BKN100
     FM221800 26034G49KT P6SM SCT110
     FM222300 26023G28KT P6SM SCT080 BKN120=

USA.gov is the U.S. government's official web portal to all federal, state and local government web resources and services.